createdAt,value
2018-04-23T10:12:56.158Z,20.53
2018-04-23T10:15:24.586Z,21.70
2018-04-23T10:17:52.894Z,16.53
2018-04-23T10:20:21.791Z,21.05
2018-04-23T10:22:50.187Z,20.60
2018-04-23T10:25:18.548Z,21.45
2018-04-23T10:27:46.849Z,13.80
2018-04-23T10:30:15.172Z,12.20
2018-04-23T10:32:43.962Z,13.07
2018-04-23T10:35:12.267Z,22.15
2018-04-23T10:37:42.364Z,18.83
2018-04-23T10:40:10.715Z,15.63
2018-04-23T10:42:39.023Z,20.57
2018-04-23T10:45:07.326Z,14.33
2018-04-23T10:47:35.632Z,16.80
2018-04-23T10:50:04.181Z,20.97
2018-04-23T10:52:32.456Z,19.60
2018-04-23T10:55:00.895Z,15.55
2018-04-23T10:57:30.019Z,14.13
2018-04-23T10:59:58.356Z,17.00
2018-04-23T11:02:27.559Z,23.60
2018-04-23T11:04:55.910Z,27.87
2018-04-23T11:07:24.218Z,20.30
2018-04-23T11:09:52.556Z,16.58
2018-04-23T11:12:20.871Z,17.20
2018-04-23T11:14:50.013Z,22.40
2018-04-23T11:17:18.406Z,16.67
2018-04-23T11:19:46.698Z,16.83
2018-04-23T11:22:15.019Z,15.77
2018-04-23T11:24:43.339Z,21.20
2018-04-23T11:27:11.590Z,23.12
2018-04-23T11:29:39.892Z,21.63
2018-04-23T11:32:08.253Z,18.80
2018-04-23T11:34:36.568Z,24.73
2018-04-23T11:37:05.666Z,22.70
2018-04-23T11:39:34.334Z,34.20
2018-04-23T11:42:03.630Z,16.73
2018-04-23T11:44:32.115Z,28.67
2018-04-23T11:47:00.407Z,23.60
2018-04-23T11:49:28.678Z,18.10
2018-04-23T11:51:57.124Z,19.97
2018-04-23T11:54:25.374Z,20.10
2018-04-23T11:56:53.706Z,22.33
2018-04-23T11:59:22.103Z,23.08
2018-04-23T12:01:50.344Z,21.30
2018-04-23T12:04:18.788Z,23.58
2018-04-23T12:06:47.063Z,17.93
2018-04-23T12:09:15.357Z,23.10
2018-04-23T12:11:43.639Z,16.63
2018-04-23T12:14:11.970Z,19.23
2018-04-23T12:16:40.249Z,16.07
2018-04-23T12:19:08.555Z,20.40
2018-04-23T12:21:36.870Z,15.70
2018-04-23T12:24:05.136Z,16.70
2018-04-23T12:26:33.486Z,18.27
2018-04-23T12:29:01.777Z,14.50
2018-04-23T12:31:30.998Z,18.57
2018-04-23T12:33:59.267Z,18.10
2018-04-23T12:36:27.579Z,16.90
2018-04-23T12:38:56.984Z,20.83
2018-04-23T12:41:25.258Z,18.27
2018-04-23T12:43:53.599Z,20.10
2018-04-23T12:46:21.848Z,18.60
2018-04-23T12:48:50.171Z,19.50
2018-04-23T12:51:18.494Z,18.45
2018-04-23T12:53:46.790Z,17.13
2018-04-23T12:56:15.072Z,14.48
2018-04-23T12:58:43.346Z,24.63
2018-04-23T13:01:11.733Z,15.63
2018-04-23T13:03:40.013Z,22.00
2018-04-23T13:06:08.390Z,19.70
2018-04-23T13:08:36.661Z,13.73
2018-04-23T13:11:05.574Z,18.07
2018-04-23T13:13:34.377Z,18.27
2018-04-23T13:16:02.718Z,20.43
2018-04-23T13:18:30.979Z,18.60
2018-04-23T13:20:59.297Z,16.97
2018-04-23T13:23:27.564Z,15.17
2018-04-23T13:25:55.940Z,22.13
2018-04-23T13:28:24.340Z,15.47
2018-04-23T13:30:52.718Z,19.20
2018-04-23T13:33:21.118Z,23.60
2018-04-23T13:35:49.362Z,23.53
2018-04-23T13:38:18.621Z,17.53
2018-04-23T13:40:47.047Z,19.30
2018-04-23T13:43:15.518Z,18.33
2018-04-23T13:45:43.815Z,18.53
2018-04-23T13:48:12.136Z,20.60
2018-04-23T13:50:40.953Z,18.40
2018-04-23T13:53:09.332Z,19.95
2018-04-23T13:55:37.593Z,17.13
2018-04-23T13:58:05.875Z,23.52
2018-04-23T14:00:34.202Z,18.70
2018-04-23T14:03:02.564Z,21.73
2018-04-23T14:05:30.896Z,17.63
2018-04-23T14:07:59.202Z,21.97
2018-04-23T14:10:27.507Z,19.97
2018-04-23T14:12:55.910Z,22.90
2018-04-23T14:15:24.207Z,22.10
2018-04-23T14:17:52.485Z,18.57
2018-04-23T14:20:21.428Z,25.67
2018-04-23T14:22:49.693Z,16.43
2018-04-23T14:25:18.007Z,18.12
2018-04-23T14:27:46.263Z,18.10
2018-04-23T14:30:14.554Z,19.23
2018-04-23T14:32:42.948Z,22.20
2018-04-23T14:35:11.294Z,19.98
2018-04-23T14:37:39.709Z,16.97
2018-04-23T14:40:08.075Z,18.07
2018-04-23T14:42:36.406Z,14.60
2018-04-23T14:45:05.775Z,24.87
2018-04-23T14:47:34.227Z,11.00
2018-04-23T14:50:02.513Z,13.80
2018-04-23T14:52:30.851Z,15.50
2018-04-23T14:54:59.151Z,14.05
2018-04-23T14:57:27.466Z,16.93
2018-04-23T14:59:55.735Z,15.80
2018-04-23T15:02:24.065Z,18.53
2018-04-23T15:04:52.334Z,11.10
2018-04-23T15:07:20.718Z,12.50
2018-04-23T15:09:49.139Z,12.47
2018-04-23T15:12:17.443Z,15.32
2018-04-23T15:14:45.752Z,15.23
2018-04-23T15:17:14.035Z,11.70
2018-04-23T15:19:42.446Z,14.07
2018-04-23T15:22:10.752Z,16.87
2018-04-23T15:24:39.082Z,17.10
2018-04-23T15:27:07.380Z,12.87
2018-04-23T15:29:35.664Z,14.13
2018-04-23T15:32:03.968Z,20.10
2018-04-23T15:34:32.334Z,13.37
2018-04-23T15:37:01.300Z,9.77
2018-04-23T15:39:29.625Z,10.70
2018-04-23T15:41:58.687Z,14.53
2018-04-23T15:44:27.032Z,13.03
2018-04-23T15:46:55.345Z,14.50
2018-04-23T15:49:23.617Z,11.00
2018-04-23T15:51:51.888Z,12.27
2018-04-23T15:54:20.787Z,13.60
2018-04-23T15:56:49.999Z,15.73
2018-04-23T15:59:19.461Z,13.05
2018-04-23T16:01:47.739Z,11.80
2018-04-23T16:04:16.012Z,10.65
2018-04-23T16:06:44.357Z,12.00
2018-04-23T16:09:12.622Z,11.33
2018-04-23T16:11:40.937Z,11.90
2018-04-23T16:14:09.203Z,14.57
2018-04-23T16:16:37.499Z,14.37
2018-04-23T16:19:05.859Z,15.17
2018-04-23T16:21:34.167Z,19.13
2018-04-23T16:24:02.459Z,17.17
2018-04-23T16:26:30.752Z,16.43
2018-04-23T16:28:59.040Z,18.23
2018-04-23T16:31:27.371Z,17.07
2018-04-23T16:33:56.306Z,14.60
2018-04-23T16:36:24.602Z,15.93
2018-04-23T16:38:52.878Z,16.20
2018-04-23T16:41:21.189Z,14.00
2018-04-23T16:43:49.507Z,12.23
2018-04-23T16:46:17.758Z,18.77
2018-04-23T16:48:46.345Z,17.00
2018-04-23T16:51:14.627Z,17.48
2018-04-23T16:53:43.046Z,28.20
2018-04-23T16:56:11.286Z,15.80
2018-04-23T16:58:39.592Z,17.83
2018-04-23T17:01:07.951Z,14.97
2018-04-23T17:03:37.131Z,19.30
2018-04-23T17:06:05.406Z,16.10
2018-04-23T17:08:33.754Z,20.60
2018-04-23T17:11:02.164Z,19.07
2018-04-23T17:13:30.484Z,13.80
2018-04-23T17:15:58.864Z,14.20
2018-04-23T17:18:27.848Z,16.67
2018-04-23T17:20:56.191Z,13.50
2018-04-23T17:23:24.496Z,15.23
2018-04-23T17:25:52.782Z,13.40
2018-04-23T17:28:21.131Z,18.60
2018-04-23T17:30:49.409Z,15.13
2018-04-23T17:33:17.696Z,26.40
2018-04-23T17:35:46.004Z,13.13
2018-04-23T17:38:14.335Z,17.87
2018-04-23T17:40:42.666Z,15.67
2018-04-23T17:43:10.952Z,16.45
2018-04-23T17:45:39.255Z,15.60
2018-04-23T17:48:07.535Z,12.63
2018-04-23T17:50:35.826Z,19.10
2018-04-23T17:53:04.130Z,20.97
2018-04-23T17:55:32.447Z,16.27
2018-04-23T17:58:00.729Z,13.77
2018-04-23T18:00:29.060Z,18.77
2018-04-23T18:02:57.336Z,24.73
2018-04-23T18:05:25.691Z,16.90
2018-04-23T18:07:54.506Z,13.67
2018-04-23T18:10:22.796Z,18.00
2018-04-23T18:12:51.070Z,16.53
2018-04-23T18:15:19.390Z,14.15
2018-04-23T18:17:47.747Z,20.57
2018-04-23T18:20:16.039Z,14.80
2018-04-23T18:22:45.135Z,18.67
2018-04-23T18:25:13.772Z,9.65
2018-04-23T18:27:42.299Z,12.20
2018-04-23T18:30:10.724Z,12.27
2018-04-23T18:32:39.299Z,13.50
2018-04-23T18:35:07.594Z,9.60
2018-04-23T18:37:35.906Z,12.70
2018-04-23T18:40:05.988Z,11.70
2018-04-23T18:42:34.314Z,17.77
2018-04-23T18:45:02.663Z,11.00
2018-04-23T18:47:31.005Z,7.87
2018-04-23T18:49:59.816Z,16.17
2018-04-23T18:52:28.176Z,9.32
2018-04-23T18:54:56.466Z,9.00
2018-04-23T18:57:24.747Z,19.00
2018-04-23T18:59:53.256Z,13.27
2018-04-23T19:02:21.601Z,9.90
2018-04-23T19:04:49.852Z,7.20
2018-04-23T19:07:18.177Z,8.13
2018-04-23T19:09:46.444Z,14.53
2018-04-23T19:12:14.772Z,11.43
2018-04-23T19:14:43.095Z,14.20
2018-04-23T19:17:11.366Z,10.30
2018-04-23T19:19:39.714Z,10.83
2018-04-23T19:22:07.994Z,8.77
2018-04-23T19:24:37.359Z,11.95
2018-04-23T19:27:05.697Z,8.63
2018-04-23T19:29:34.009Z,16.83
2018-04-23T19:32:02.315Z,9.70
2018-04-23T19:34:30.623Z,10.53
2018-04-23T19:36:58.897Z,19.60
2018-04-23T19:39:27.276Z,12.65
2018-04-23T19:41:55.595Z,15.57
2018-04-23T19:44:23.865Z,7.13
2018-04-23T19:46:52.156Z,25.20
2018-04-23T19:49:20.468Z,7.33
2018-04-23T19:51:48.841Z,12.00
2018-04-23T19:54:17.091Z,14.83
2018-04-23T19:56:45.411Z,15.93
2018-04-23T19:59:13.679Z,7.97
2018-04-23T20:01:42.002Z,7.10
2018-04-23T20:04:10.306Z,10.18
2018-04-23T20:06:38.613Z,9.10
2018-04-23T20:09:06.913Z,8.50
2018-04-23T20:11:35.702Z,7.93
2018-04-23T20:14:04.047Z,7.67
2018-04-23T20:16:32.387Z,9.13
2018-04-23T20:19:00.703Z,7.83
2018-04-23T20:21:30.260Z,9.07
2018-04-23T20:23:58.558Z,7.07
2018-04-23T20:26:26.843Z,7.03
2018-04-23T20:28:55.124Z,13.43
2018-04-23T20:31:24.159Z,10.60
2018-04-23T20:33:52.548Z,10.13
2018-04-23T20:36:20.814Z,9.03
2018-04-23T20:38:49.142Z,7.63
2018-04-23T20:41:17.410Z,8.93
2018-04-23T20:43:45.679Z,9.95
2018-04-23T20:46:14.013Z,12.33
2018-04-23T20:48:42.386Z,14.27
2018-04-23T20:51:10.694Z,6.40
2018-04-23T20:53:38.975Z,9.37
2018-04-23T20:56:07.272Z,7.93
2018-04-23T20:58:35.541Z,8.77
2018-04-23T21:01:03.984Z,10.07
2018-04-23T21:03:32.502Z,7.60
2018-04-23T21:06:01.158Z,9.13
2018-04-23T21:08:29.433Z,5.00
2018-04-23T21:10:57.919Z,12.57
2018-04-23T21:13:26.162Z,7.60
2018-04-23T21:15:54.457Z,6.80
2018-04-23T21:18:22.804Z,6.13
2018-04-23T21:20:51.079Z,7.97
2018-04-23T21:23:19.384Z,7.60
2018-04-23T21:25:48.347Z,5.13
2018-04-23T21:28:16.719Z,7.93
2018-04-23T21:30:45.005Z,6.70
2018-04-23T21:33:14.866Z,7.15
2018-04-23T21:35:43.158Z,8.52
2018-04-23T21:38:11.418Z,4.10
2018-04-23T21:40:39.676Z,7.93
2018-04-23T21:43:07.996Z,8.40
2018-04-23T21:45:36.422Z,4.50
2018-04-23T21:48:04.858Z,7.50
2018-04-23T21:50:33.135Z,9.80
2018-04-23T21:53:01.422Z,6.90
2018-04-23T21:55:29.683Z,4.73
2018-04-23T21:57:58.013Z,7.17
2018-04-23T22:00:26.366Z,7.03
2018-04-23T22:02:54.658Z,4.60
2018-04-23T22:05:23.120Z,3.92
2018-04-23T22:07:51.412Z,6.93
2018-04-23T22:10:19.705Z,7.15
2018-04-23T22:12:47.966Z,9.43
2018-04-23T22:15:16.282Z,14.70
2018-04-23T22:17:44.562Z,9.03
2018-04-23T22:20:12.878Z,5.10
2018-04-23T22:22:41.160Z,10.27
2018-04-23T22:25:09.464Z,9.23
2018-04-23T22:27:37.724Z,9.13
2018-04-23T22:30:06.015Z,12.70
2018-04-23T22:32:34.324Z,6.30
2018-04-23T22:35:02.639Z,12.20
2018-04-23T22:37:30.935Z,7.00
2018-04-23T22:39:59.207Z,6.73
2018-04-23T22:42:27.548Z,9.83
2018-04-23T22:44:55.848Z,8.03
2018-04-23T22:47:24.139Z,17.93
2018-04-23T22:49:52.415Z,13.43
2018-04-23T22:52:20.730Z,12.23
2018-04-23T22:54:49.012Z,8.83
2018-04-23T22:57:17.336Z,8.63
2018-04-23T22:59:45.574Z,9.13
2018-04-23T23:02:13.898Z,7.20
2018-04-23T23:04:42.183Z,6.97
2018-04-23T23:07:10.470Z,5.53
2018-04-23T23:09:38.727Z,6.93
2018-04-23T23:12:07.039Z,7.73
2018-04-23T23:14:35.288Z,9.30
2018-04-23T23:17:03.591Z,7.20
2018-04-23T23:19:31.839Z,6.77
2018-04-23T23:22:00.122Z,7.60
2018-04-23T23:24:28.448Z,6.63
2018-04-23T23:26:56.732Z,8.20
2018-04-23T23:29:25.040Z,10.25
2018-04-23T23:31:53.355Z,22.03
2018-04-23T23:34:21.637Z,6.18
2018-04-23T23:36:49.898Z,9.20
2018-04-23T23:39:18.208Z,6.37
2018-04-23T23:41:46.528Z,10.53
2018-04-23T23:44:14.828Z,7.90
2018-04-23T23:46:43.282Z,8.43
2018-04-23T23:49:11.569Z,6.63
2018-04-23T23:51:39.830Z,9.45
2018-04-23T23:54:08.159Z,6.40
2018-04-23T23:56:36.410Z,5.83
2018-04-23T23:59:05.086Z,10.45
